Time;durP1;ratioP1;P1;durP2;ratioP2;P2;SDS_P1;SDS_P2;PMS_P1;PMS_P2;Temp;Humidity;BMP_temperature;BMP_pressure;BME280_temperature;BME280_humidity;BME280_pressure;Samples;Min_cycle;Max_cycle;Signal;HPM_P1;HPM_P2
2021/12/07 00:01:50;;;;;;;7.50;2.90;;;;;;;13.23;39.71;100406.38;4879360;29;20085;-79
2021/12/07 00:04:16;;;;;;;9.90;3.00;;;;;;;13.32;39.59;100420.00;4879287;29;20026;-79
2021/12/07 00:06:42;;;;;;;5.60;2.70;;;;;;;13.33;39.51;100419.66;4879264;29;20429;-79
2021/12/07 00:09:11;;;;;;;11.57;3.78;;;;;;;13.26;39.58;100418.59;4879171;29;20484;-79
2021/12/07 00:11:37;;;;;;;8.00;2.90;;;;;;;13.31;39.34;100410.16;4879301;29;20025;-78
2021/12/07 00:14:12;;;;;;;7.85;2.67;;;;;;;13.33;39.30;100396.91;4879623;29;20455;-79
2021/12/07 00:16:40;;;;;;;10.95;3.38;;;;;;;13.21;39.68;100381.19;4862639;29;20025;-79
2021/12/07 00:19:06;;;;;;;7.05;2.63;;;;;;;13.31;39.44;100375.28;4879211;29;20044;-79
2021/12/07 00:21:32;;;;;;;12.95;3.65;;;;;;;13.35;39.47;100358.13;4879112;29;20029;-79
2021/12/07 00:23:57;;;;;;;8.45;3.45;;;;;;;13.23;39.64;100357.00;4862425;29;20104;-79
2021/12/07 00:26:23;;;;;;;12.85;4.03;;;;;;;13.29;39.50;100355.59;4879061;29;20097;-84
2021/12/07 00:28:50;;;;;;;8.07;3.20;;;;;;;13.41;39.32;100354.03;4879054;29;20029;-79
2021/12/07 00:31:30;;;;;;;11.15;3.60;;;;;;;13.45;39.17;100349.44;4879040;29;20031;-79
2021/12/07 00:34:12;;;;;;;10.50;3.45;;;;;;;13.18;39.56;100337.97;4862314;29;20085;-78
2021/12/07 00:36:44;;;;;;;12.63;3.38;;;;;;;13.21;39.57;100320.03;4878891;29;20040;-79
2021/12/07 00:39:11;;;;;;;9.80;3.25;;;;;;;13.14;39.64;100323.31;4861741;29;20132;-87
2021/12/07 00:41:37;;;;;;;8.75;3.67;;;;;;;13.27;39.32;100324.16;4878908;29;20030;-79
2021/12/07 00:44:03;;;;;;;8.88;3.20;;;;;;;13.66;38.70;100317.22;4878822;29;20026;-79
2021/12/07 00:46:31;;;;;;;11.95;3.78;;;;;;;13.72;38.59;100329.56;4878785;29;20108;-79
2021/12/07 00:48:56;;;;;;;9.90;4.13;;;;;;;13.33;39.36;100334.59;4879093;29;20528;-79
2021/12/07 00:51:22;;;;;;;10.65;3.53;;;;;;;13.30;39.34;100326.25;4878778;29;20025;-79
2021/12/07 00:53:48;;;;;;;13.10;3.47;;;;;;;13.31;39.46;100325.91;4878542;29;20073;-79
2021/12/07 00:56:14;;;;;;;9.77;3.42;;;;;;;13.20;39.47;100291.00;4878735;29;20093;-79
2021/12/07 00:58:40;;;;;;;9.45;3.63;;;;;;;13.26;39.50;100292.41;4878602;29;20477;-79
2021/12/07 01:01:10;;;;;;;8.55;3.00;;;;;;;13.27;39.36;100308.50;4878663;29;20021;-79
2021/12/07 01:03:36;;;;;;;9.98;3.22;;;;;;;13.21;39.53;100314.56;4861988;29;20028;-79
2021/12/07 01:06:16;;;;;;;9.05;3.00;;;;;;;13.23;39.46;100313.09;4878732;29;20037;-79
2021/12/07 01:25:10;;;;;;;9.90;2.70;;;;;;;13.46;39.01;100244.84;4878632;29;20128;-79
2021/12/07 01:27:36;;;;;;;11.82;3.17;;;;;;;13.43;39.01;100242.78;4878449;29;20445;-79
2021/12/07 01:30:17;;;;;;;8.20;2.80;;;;;;;13.46;39.16;100244.84;4878408;29;20373;-79
2021/12/07 01:33:03;;;;;;;11.70;3.60;;;;;;;13.47;39.03;100240.16;4878543;29;20036;-88
2021/12/07 01:35:48;;;;;;;8.25;2.63;;;;;;;13.40;39.21;100237.97;4878509;29;20037;-78
2021/12/07 01:59:36;;;;;;;8.40;2.72;;;;;;;13.35;39.26;100245.63;4881631;29;20112;-79
2021/12/07 02:02:10;;;;;;;8.55;2.20;;;;;;;13.34;39.28;100244.84;4881578;29;20077;-79
2021/12/07 02:04:40;;;;;;;7.38;2.80;;;;;;;13.43;39.32;100236.47;4864682;29;20380;-79
2021/12/07 02:07:06;;;;;;;9.00;2.23;;;;;;;13.44;39.16;100227.09;4881573;29;20033;-80
2021/12/07 02:09:37;;;;;;;11.65;3.22;;;;;;;13.43;39.24;100223.56;4881394;29;20324;-78
2021/12/07 02:12:06;;;;;;;8.27;2.40;;;;;;;13.44;39.18;100233.38;4881466;29;20081;-79
2021/12/07 02:14:31;;;;;;;13.33;3.20;;;;;;;13.41;39.31;100236.84;4881274;29;20021;-79
2021/12/07 02:17:00;;;;;;;22.05;4.25;;;;;;;13.46;39.30;100224.84;4881328;29;20025;-79
2021/12/07 02:19:26;;;;;;;15.20;3.10;;;;;;;13.50;39.44;100206.50;4881088;29;20040;-79
2021/12/07 02:21:54;;;;;;;11.95;4.40;;;;;;;13.39;39.49;100191.69;4881130;29;20029;-78
2021/12/07 02:24:19;;;;;;;13.30;2.97;;;;;;;13.46;39.30;100183.66;4881032;29;20077;-79
2021/12/07 02:26:47;;;;;;;12.98;2.83;;;;;;;13.37;39.52;100158.28;4881134;29;20025;-79
2021/12/07 02:29:14;;;;;;;10.63;3.72;;;;;;;13.42;39.50;100138.84;4881122;29;20029;-79
2021/12/07 02:31:39;;;;;;;8.77;2.38;;;;;;;13.31;39.68;100100.13;4864273;29;20472;-79
2021/12/07 02:34:06;;;;;;;8.30;2.90;;;;;;;13.04;40.29;100057.72;4880892;29;20036;-79
2021/12/07 02:36:33;;;;;;;9.23;3.22;;;;;;;13.18;39.77;100044.44;4880949;29;20088;-79
2021/12/07 02:39:04;;;;;;;15.07;2.95;;;;;;;13.00;40.29;100035.69;4880720;29;20113;-79
2021/12/07 02:41:30;;;;;;;10.85;3.42;;;;;;;13.12;40.28;100054.03;4880863;29;20021;-79
2021/12/07 02:43:55;;;;;;;11.40;2.85;;;;;;;13.23;40.17;100051.66;4880860;29;20385;-79
2021/12/07 02:46:21;;;;;;;11.32;3.10;;;;;;;13.18;39.85;100052.66;4880677;29;20029;-79
2021/12/07 02:48:47;;;;;;;8.82;2.58;;;;;;;13.35;39.53;100053.56;4880590;29;20029;-79
2021/12/07 02:51:12;;;;;;;11.60;3.28;;;;;;;13.42;39.71;100070.22;4880695;29;20112;-79
2021/12/07 02:53:38;;;;;;;9.25;2.72;;;;;;;13.43;39.64;100069.88;4880413;29;20060;-79
2021/12/07 02:56:06;;;;;;;6.95;2.70;;;;;;;13.38;39.81;100061.91;4863922;29;20123;-79
2021/12/07 02:58:32;;;;;;;9.57;4.15;;;;;;;13.37;39.57;100057.53;4880325;29;20032;-79
2021/12/07 03:01:06;;;;;;;7.10;2.67;;;;;;;13.48;39.64;100063.34;4879769;29;20044;-79
2021/12/07 03:03:36;;;;;;;7.28;2.05;;;;;;;13.34;39.76;100063.75;4880469;29;20040;-79
2021/12/07 03:27:23;;;;;;;14.45;3.42;;;;;;;13.36;39.94;99961.88;4880376;29;20040;-88
2021/12/07 03:29:49;;;;;;;9.48;3.15;;;;;;;13.38;40.08;99946.66;4879912;29;20037;-79
2021/12/07 03:32:16;;;;;;;12.88;3.42;;;;;;;13.48;39.73;99931.63;4879926;29;20116;-78
2021/12/07 03:34:41;;;;;;;6.53;3.20;;;;;;;13.52;39.81;99913.28;4879898;29;20033;-79
2021/12/07 03:37:07;;;;;;;7.93;2.30;;;;;;;13.56;39.57;99892.22;4879790;29;20036;-79
2021/12/07 03:39:33;;;;;;;14.60;3.88;;;;;;;13.82;39.23;99883.47;4879666;29;20484;-79
2021/12/07 03:41:58;;;;;;;7.90;2.30;;;;;;;13.75;39.57;99875.03;4879696;29;20052;-79
2021/12/07 03:44:24;;;;;;;11.82;2.30;;;;;;;13.71;39.90;99868.69;4879682;29;20477;-79
2021/12/07 03:46:50;;;;;;;8.77;2.65;;;;;;;13.77;39.87;99848.84;4879592;29;20033;-79
2021/12/07 03:49:16;;;;;;;9.13;2.85;;;;;;;13.75;40.37;99823.72;4863096;29;20130;-79
2021/12/07 03:51:41;;;;;;;17.85;3.63;;;;;;;14.05;39.92;99814.94;4879558;29;20033;-79
2021/12/07 03:54:07;;;;;;;13.13;2.15;;;;;;;14.00;40.15;99807.00;4879232;29;20124;-79
2021/12/07 03:56:34;;;;;;;12.85;3.40;;;;;;;14.00;40.43;99791.31;4879463;29;20064;-79
2021/12/07 03:59:00;;;;;;;6.68;1.83;;;;;;;14.05;40.42;99776.47;4879422;29;20433;-79
2021/12/07 04:01:26;;;;;;;10.68;2.95;;;;;;;14.11;40.29;99755.81;4879369;29;20077;-79
2021/12/07 04:03:53;;;;;;;17.30;5.30;;;;;;;14.18;40.24;99745.00;4862658;29;20033;-79
2021/12/07 04:06:20;;;;;;;7.72;2.88;;;;;;;14.37;39.65;99738.72;4879336;29;20025;-79
2021/12/07 04:08:46;;;;;;;11.63;4.18;;;;;;;14.37;39.66;99734.00;4879231;29;20032;-79
2021/12/07 04:11:13;;;;;;;9.65;2.22;;;;;;;14.08;40.27;99726.34;4879277;29;20044;-79
2021/12/07 04:13:40;;;;;;;9.95;3.00;;;;;;;14.05;39.73;99716.06;4878363;29;20060;-79
2021/12/07 04:16:08;;;;;;;9.32;2.80;;;;;;;14.28;39.43;99699.66;4879143;29;20043;-79
2021/12/07 04:18:35;;;;;;;12.88;2.50;;;;;;;14.21;39.64;99697.56;4879133;29;20032;-78
2021/12/07 04:21:02;;;;;;;11.48;2.53;;;;;;;14.01;39.89;99690.50;4878609;29;20048;-79
2021/12/07 04:23:29;;;;;;;11.70;2.03;;;;;;;14.05;39.46;99683.91;4877867;29;20029;-78
2021/12/07 04:25:55;;;;;;;11.50;2.33;;;;;;;14.10;38.96;99664.38;4878718;29;20068;-78
2021/12/07 04:28:21;;;;;;;11.27;3.40;;;;;;;14.42;38.69;99665.00;4878108;29;20466;-79
2021/12/07 04:30:47;;;;;;;10.32;2.33;;;;;;;14.20;38.89;99652.00;4878985;29;20037;-78
2021/12/07 04:33:14;;;;;;;8.50;2.60;;;;;;;14.09;39.32;99640.03;4878879;29;20037;-79
2021/12/07 04:35:45;;;;;;;11.50;2.40;;;;;;;14.28;38.44;99620.78;4862141;29;20043;-79
2021/12/07 04:38:11;;;;;;;13.15;3.40;;;;;;;14.19;38.49;99595.47;4878915;29;20106;-79
2021/12/07 04:40:38;;;;;;;12.25;3.10;;;;;;;14.06;38.55;99594.06;4878742;29;20142;-79
2021/12/07 04:43:05;;;;;;;10.80;2.92;;;;;;;14.25;38.42;99588.53;4878890;29;20025;-79
2021/12/07 04:58:34;;;;;;;8.20;2.45;;;;;;;14.25;38.97;99502.56;4879007;29;20043;-78
2021/12/07 05:01:00;;;;;;;8.13;2.00;;;;;;;14.50;38.53;99478.25;4878680;29;20025;-78
2021/12/07 05:03:28;;;;;;;11.63;2.70;;;;;;;14.50;38.69;99456.25;4878636;29;20029;-78
2021/12/07 05:05:54;;;;;;;10.20;2.50;;;;;;;14.66;38.58;99432.13;4878724;29;20552;-78
2021/12/07 05:08:43;;;;;;;10.75;2.70;;;;;;;14.62;39.12;99414.81;4878598;29;20029;-79
2021/12/07 05:13:51;;;;;;;11.45;2.28;;;;;;;14.99;38.84;99371.69;4878555;29;20029;-78
2021/12/07 05:23:52;;;;;;;19.85;3.70;;;;;;;15.15;38.79;99332.97;4878720;29;20475;-79
2021/12/07 05:24:37;;;;;;;19.63;4.25;;;;;;;14.84;40.07;99279.19;4880884;29;20138;-84
2021/12/07 05:37:51;;;;;;;8.60;1.45;;;;;;;14.24;42.16;99205.06;4882301;29;20033;-79
2021/12/07 05:40:27;;;;;;;5.75;1.58;;;;;;;14.19;42.16;99190.88;4865094;29;20460;-79
2021/12/07 05:42:53;;;;;;;17.80;2.60;;;;;;;14.65;41.27;99189.44;4881918;29;20057;-79
2021/12/07 05:45:23;;;;;;;15.88;4.93;;;;;;;14.82;41.17;99182.56;4881812;29;20108;-79
2021/12/07 05:47:49;;;;;;;15.80;3.97;;;;;;;14.55;41.73;99162.66;4881779;29;20047;-78
2021/12/07 05:50:20;;;;;;;13.32;3.08;;;;;;;14.11;42.80;99154.28;4881826;29;20086;-79
2021/12/07 05:52:46;;;;;;;7.03;1.90;;;;;;;14.22;42.93;99135.19;4881744;29;20033;-79
2021/12/07 05:55:12;;;;;;;3.13;1.40;;;;;;;14.36;42.45;99119.66;4881593;29;20120;-79
2021/12/07 05:57:38;;;;;;;11.93;2.38;;;;;;;14.07;43.12;99084.81;4881685;29;20033;-79
2021/12/07 06:00:08;;;;;;;9.00;1.85;;;;;;;14.19;43.36;99068.03;4881569;29;20594;-78
2021/12/07 06:02:34;;;;;;;8.82;1.65;;;;;;;14.10;43.49;99053.84;4881925;29;20084;-79
2021/12/07 06:04:59;;;;;;;5.32;1.25;;;;;;;14.31;43.12;99037.56;4881721;29;20029;-79
2021/12/07 06:07:25;;;;;;;15.35;3.40;;;;;;;14.29;43.59;99019.88;4881821;29;20369;-79
2021/12/07 06:09:50;;;;;;;6.65;2.00;;;;;;;14.24;43.76;99021.00;4881511;29;20037;-78
2021/12/07 06:12:16;;;;;;;11.82;1.95;;;;;;;14.55;43.01;99018.94;4864772;29;20619;-87
2021/12/07 06:14:43;;;;;;;7.65;1.88;;;;;;;14.04;44.45;98986.69;4881433;29;20040;-79
2021/12/07 06:17:11;;;;;;;5.47;1.70;;;;;;;14.30;44.09;99002.22;4881491;29;20053;-79
2021/12/07 06:19:36;;;;;;;9.65;1.77;;;;;;;14.52;43.52;98973.78;4881309;29;20033;-79
2021/12/07 06:22:03;;;;;;;6.47;1.35;;;;;;;14.62;43.40;98958.53;4881630;29;20440;-79
2021/12/07 06:24:29;;;;;;;8.65;1.50;;;;;;;14.38;44.27;98940.66;4881311;29;20027;-80
2021/12/07 06:26:55;;;;;;;12.60;2.78;;;;;;;14.39;44.72;98921.06;4881200;29;20025;-79
2021/12/07 06:29:20;;;;;;;9.23;2.40;;;;;;;14.75;44.21;98901.28;4864339;29;20033;-79
2021/12/07 06:31:46;;;;;;;11.13;2.50;;;;;;;14.80;44.00;98901.66;4881226;29;20025;-79
2021/12/07 06:34:12;;;;;;;8.80;2.40;;;;;;;14.78;44.33;98860.03;4881172;29;20058;-78
2021/12/07 06:36:39;;;;;;;6.65;2.20;;;;;;;14.97;44.15;98848.72;4880023;29;20102;-86
2021/12/07 06:39:07;;;;;;;7.22;1.88;;;;;;;14.33;45.95;98834.66;4880853;29;20029;-79
2021/12/07 06:41:33;;;;;;;11.88;3.50;;;;;;;14.28;46.10;98799.31;4881131;29;20029;-78
2021/12/07 06:43:59;;;;;;;8.50;3.10;;;;;;;14.73;45.48;98788.91;4881140;29;20029;-79
2021/12/07 06:46:24;;;;;;;12.70;2.90;;;;;;;14.77;45.56;98775.19;4864089;29;20512;-78
2021/12/07 06:48:50;;;;;;;11.40;3.20;;;;;;;15.03;45.32;98763.06;4880800;29;20025;-78
2021/12/07 06:51:16;;;;;;;9.95;2.03;;;;;;;14.91;45.40;98731.25;4880649;29;20033;-79
2021/12/07 06:53:42;;;;;;;9.57;2.75;;;;;;;15.24;44.41;98719.09;4880592;29;20112;-79
2021/12/07 06:56:10;;;;;;;17.25;3.33;;;;;;;14.69;45.97;98705.69;4880806;29;20085;-78
2021/12/07 06:58:36;;;;;;;13.00;2.95;;;;;;;14.67;46.19;98689.56;4863694;29;20093;-78
2021/12/07 07:01:06;;;;;;;15.82;3.60;;;;;;;14.64;46.02;98682.09;4880718;29;20040;-79
2021/12/07 07:03:35;;;;;;;21.17;3.17;;;;;;;14.76;45.61;98658.97;4880727;29;20036;-78
2021/12/07 07:06:03;;;;;;;11.88;2.80;;;;;;;14.88;45.41;98636.56;4880645;29;20060;-79
2021/12/07 07:08:28;;;;;;;11.18;2.72;;;;;;;14.80;45.48;98621.25;4880380;29;20089;-79
2021/12/07 07:10:54;;;;;;;14.77;3.25;;;;;;;14.75;45.50;98609.88;4863604;29;20037;-79
2021/12/07 07:13:20;;;;;;;14.18;3.53;;;;;;;14.96;45.36;98579.59;4880489;29;20029;-79
2021/12/07 07:15:46;;;;;;;11.63;3.58;;;;;;;14.87;45.47;98585.50;4880302;29;20033;-78
2021/12/07 07:18:12;;;;;;;24.85;3.70;;;;;;;14.94;45.04;98574.50;4863731;29;20036;-79
2021/12/07 07:20:38;;;;;;;12.60;3.78;;;;;;;14.93;45.11;98572.16;4880380;29;20041;-79
2021/12/07 07:23:04;;;;;;;13.23;4.20;;;;;;;14.77;45.71;98555.28;4880332;29;20182;-88
2021/12/07 07:25:31;;;;;;;17.48;4.50;;;;;;;14.75;45.72;98528.19;4863383;29;20400;-78
2021/12/07 07:27:57;;;;;;;16.67;3.38;;;;;;;14.99;45.13;98513.59;4880250;29;20536;-78
2021/12/07 07:30:23;;;;;;;12.60;3.63;;;;;;;14.79;45.44;98498.72;4880222;29;20500;-79
2021/12/07 07:32:50;;;;;;;23.95;4.43;;;;;;;14.54;46.07;98465.78;4880173;29;20151;-79
2021/12/07 07:35:16;;;;;;;15.18;3.53;;;;;;;14.80;45.73;98437.03;4863385;29;20037;-79
2021/12/07 07:37:42;;;;;;;19.52;4.75;;;;;;;14.85;46.15;98422.13;4880057;29;20029;-88
2021/12/07 07:40:12;;;;;;;15.38;3.88;;;;;;;14.84;46.31;98426.06;4880041;29;20404;-79
2021/12/07 07:42:37;;;;;;;17.27;3.38;;;;;;;14.93;46.46;98388.69;4879979;29;20029;-78
2021/12/07 07:45:04;;;;;;;15.55;3.33;;;;;;;14.90;46.50;98397.75;4879897;29;20029;-80
2021/12/07 07:47:29;;;;;;;16.83;5.30;;;;;;;14.79;47.51;98346.72;4862953;29;20025;-78
2021/12/07 07:49:55;;;;;;;21.75;5.25;;;;;;;14.95;47.27;98349.81;4879497;29;20081;-78
2021/12/07 07:52:21;;;;;;;19.42;5.22;;;;;;;14.89;47.56;98319.22;4879435;29;20036;-78
2021/12/07 07:54:46;;;;;;;25.63;6.32;;;;;;;15.08;47.37;98297.88;4879523;29;20045;-77
2021/12/07 07:57:12;;;;;;;20.75;5.38;;;;;;;14.70;48.46;98278.44;4862801;29;20029;-78
2021/12/07 07:59:39;;;;;;;28.23;5.60;;;;;;;14.99;48.07;98251.59;4879331;29;20547;-78
2021/12/07 08:02:06;;;;;;;24.98;4.97;;;;;;;15.07;48.53;98230.31;4862788;29;20031;-83
2021/12/07 08:04:31;;;;;;;43.10;6.78;;;;;;;14.69;49.69;98186.19;4862695;29;20032;-78
2021/12/07 08:06:57;;;;;;;38.58;8.63;;;;;;;15.05;48.65;98164.72;4879561;29;20025;-79
2021/12/07 08:09:23;;;;;;;27.23;7.03;;;;;;;14.86;49.53;98154.25;4879594;29;20029;-78
2021/12/07 08:11:49;;;;;;;23.45;6.32;;;;;;;14.73;50.31;98118.22;4879406;29;20387;-79
2021/12/07 08:14:17;;;;;;;27.42;5.32;;;;;;;14.38;51.66;98106.28;4877739;29;20060;-79
2021/12/07 08:16:43;;;;;;;35.92;7.40;;;;;;;15.12;49.74;98079.41;4861401;29;20059;-88
2021/12/07 08:19:09;;;;;;;22.50;6.57;;;;;;;14.84;51.00;98082.41;4861243;29;20064;-78
2021/12/07 08:21:35;;;;;;;29.55;5.65;;;;;;;14.99;50.53;98059.88;4862120;29;20066;-79
2021/12/07 08:24:00;;;;;;;41.13;8.07;;;;;;;15.02;50.65;98032.75;4862492;29;20465;-79
2021/12/07 08:26:26;;;;;;;26.23;6.32;;;;;;;14.89;51.41;98013.25;4862544;29;20028;-78
2021/12/07 08:28:54;;;;;;;31.02;7.85;;;;;;;15.23;51.21;97986.56;4879311;29;20029;-79
2021/12/07 08:31:19;;;;;;;34.20;8.40;;;;;;;15.41;50.29;97964.31;4879275;29;20025;-79
2021/12/07 08:33:45;;;;;;;30.10;7.40;;;;;;;15.14;51.04;97912.03;4878989;29;20033;-79
2021/12/07 08:36:11;;;;;;;27.50;5.82;;;;;;;14.44;53.13;97906.88;4879018;29;20025;-79
2021/12/07 08:38:37;;;;;;;25.20;7.05;;;;;;;15.09;51.28;97914.44;4879165;29;20048;-78
2021/12/07 08:41:04;;;;;;;34.70;8.10;;;;;;;15.01;51.75;97880.75;4878995;29;20609;-79
2021/12/07 08:43:31;;;;;;;36.65;6.82;;;;;;;14.42;54.32;97879.00;4879076;29;20108;-78
2021/12/07 08:45:59;;;;;;;28.73;6.30;;;;;;;14.77;53.24;97848.84;4879039;29;20037;-79
2021/12/07 08:48:26;;;;;;;36.97;7.93;;;;;;;15.32;51.80;97807.25;4878899;29;20125;-80
2021/12/07 08:50:52;;;;;;;40.30;5.78;;;;;;;14.34;54.95;97789.63;4878870;29;20040;-79
2021/12/07 08:53:19;;;;;;;34.05;8.50;;;;;;;14.47;55.23;97758.91;4879208;29;20489;-79
2021/12/07 09:01:18;;;;;;;30.30;7.05;;;;;;;15.37;52.55;97727.00;4882413;29;20036;-84
2021/12/07 09:03:45;;;;;;;34.38;7.70;;;;;;;15.32;52.92;97690.94;4866134;29;20614;-82
2021/12/07 09:06:11;;;;;;;47.85;9.02;;;;;;;15.85;51.74;97673.50;4865590;29;20029;-82
2021/12/07 09:08:37;;;;;;;28.85;7.65;;;;;;;15.33;53.75;97663.00;4881473;29;20108;-78
2021/12/07 09:11:04;;;;;;;37.47;8.38;;;;;;;15.29;54.07;97629.28;4864528;29;20057;-78
2021/12/07 09:13:30;;;;;;;41.97;9.02;;;;;;;15.41;53.36;97595.66;4865318;29;20078;-76
2021/12/07 09:15:56;;;;;;;52.20;11.10;;;;;;;15.71;52.49;97610.47;4880963;29;20064;-83
2021/12/07 09:18:24;;;;;;;44.33;8.02;;;;;;;15.59;53.33;97569.81;4865208;29;20022;-77
2021/12/07 09:20:50;;;;;;;29.63;8.52;;;;;;;15.64;53.14;97539.03;4878994;29;20117;-73
2021/12/07 09:23:16;;;;;;;32.72;6.97;;;;;;;15.81;52.69;97529.66;4881163;29;20053;-82
2021/12/07 09:25:42;;;;;;;42.60;7.50;;;;;;;15.84;52.90;97517.78;4881511;29;20021;-77
2021/12/07 09:28:10;;;;;;;47.53;10.73;;;;;;;15.89;52.79;97487.00;4881684;29;20087;-77
2021/12/07 09:30:37;;;;;;;45.88;9.88;;;;;;;15.87;52.83;97463.84;4867443;29;20040;-76
2021/12/07 09:33:04;;;;;;;36.55;9.82;;;;;;;15.27;55.45;97430.91;4866259;29;20025;-76
2021/12/07 09:35:30;;;;;;;52.58;13.32;;;;;;;15.50;54.01;97389.53;4866490;29;20029;-79
2021/12/07 09:37:56;;;;;;;30.25;9.90;;;;;;;15.16;54.96;97395.34;4849514;29;20025;-79
2021/12/07 09:40:24;;;;;;;44.42;7.47;;;;;;;14.94;55.80;97377.75;4849420;29;20029;-77
2021/12/07 09:42:51;;;;;;;48.80;10.57;;;;;;;15.59;54.22;97380.69;4866496;29;20033;-77
2021/12/07 09:45:19;;;;;;;39.15;10.77;;;;;;;15.63;54.00;97342.09;4866375;29;20080;-77
2021/12/07 09:47:46;;;;;;;37.38;9.35;;;;;;;15.64;54.19;97340.91;4866352;29;20033;-78
2021/12/07 09:50:16;;;;;;;46.65;8.80;;;;;;;15.68;54.79;97309.34;4866561;29;20033;-79
2021/12/07 09:52:44;;;;;;;29.25;6.68;;;;;;;16.14;53.45;97381.78;4865876;29;20044;-78
2021/12/07 09:55:10;;;;;;;46.55;8.60;;;;;;;17.37;49.68;97398.19;4849409;29;20052;-79
2021/12/07 09:57:36;;;;;;;19.83;5.20;;;;;;;17.20;49.02;97385.69;4866502;29;20041;-81
2021/12/07 10:00:05;;;;;;;22.58;5.20;;;;;;;16.93;48.96;97369.53;4866320;29;20092;-84
2021/12/07 10:02:31;;;;;;;16.95;3.08;;;;;;;16.33;48.26;97364.38;4849693;29;20033;-80
2021/12/07 10:04:57;;;;;;;13.77;3.38;;;;;;;16.42;47.60;97343.72;4866203;29;20403;-80
2021/12/07 10:07:22;;;;;;;11.43;3.13;;;;;;;16.83;46.90;97351.28;4866529;29;20021;-79
2021/12/07 10:09:48;;;;;;;12.52;3.92;;;;;;;16.50;47.25;97334.03;4866686;29;20017;-77
2021/12/07 10:12:19;;;;;;;19.70;5.03;;;;;;;16.14;47.03;97317.66;4865576;29;20112;-80
2021/12/07 10:14:46;;;;;;;16.83;4.60;;;;;;;16.42;46.54;97308.66;4866415;29;20036;-80
2021/12/07 10:17:12;;;;;;;17.02;5.32;;;;;;;16.23;47.15;97290.28;4866476;29;20620;-85
2021/12/07 10:19:43;;;;;;;19.15;4.13;;;;;;;16.60;46.07;97273.09;4865738;29;20041;-83
2021/12/07 10:22:18;;;;;;;18.40;3.67;;;;;;;16.84;45.48;97223.22;4865888;29;20484;-81
2021/12/07 10:24:50;;;;;;;17.98;4.50;;;;;;;16.73;44.99;97209.78;4870275;29;20059;-79
2021/12/07 10:27:37;;;;;;;20.98;4.88;;;;;;;16.52;44.04;97213.88;4864560;29;20025;-82
2021/12/07 10:30:09;;;;;;;18.17;5.03;;;;;;;17.10;43.83;97208.25;4848761;29;20516;-80
2021/12/07 10:32:40;;;;;;;24.08;5.25;;;;;;;16.78;43.76;97203.72;4852408;29;20033;-79
2021/12/07 10:35:26;;;;;;;17.33;4.68;;;;;;;16.99;43.06;97204.25;4864214;29;20069;-78
2021/12/07 10:38:15;;;;;;;21.60;5.38;;;;;;;16.79;43.59;97187.94;4879819;29;20032;-79
2021/12/07 10:41:00;;;;;;;23.27;5.55;;;;;;;16.91;43.86;97162.34;4880804;29;20033;-77
2021/12/07 10:43:47;;;;;;;16.85;6.10;;;;;;;16.47;44.83;97167.56;4880724;29;20089;-79
2021/12/07 10:46:32;;;;;;;31.58;7.70;;;;;;;16.70;44.72;97149.22;4864097;29;20400;-79
2021/12/07 10:49:10;;;;;;;25.98;6.72;;;;;;;16.83;44.31;97114.16;4880749;29;20400;-78
2021/12/07 10:51:36;;;;;;;21.38;5.55;;;;;;;16.92;44.52;97125.28;4863970;29;20033;-79
2021/12/07 10:54:02;;;;;;;22.45;6.05;;;;;;;16.96;44.41;97112.16;4863636;29;20029;-78
2021/12/07 10:56:33;;;;;;;19.35;6.63;;;;;;;16.96;44.46;97095.63;4879688;29;20504;-77
2021/12/07 10:59:07;;;;;;;24.05;5.43;;;;;;;16.87;44.17;97090.78;4880104;29;20104;-81
2021/12/07 11:01:41;;;;;;;19.52;4.38;;;;;;;16.24;45.26;97068.69;4878323;29;20021;-82
2021/12/07 11:04:24;;;;;;;25.73;6.72;;;;;;;16.71;44.54;97073.59;4877634;29;20025;-82
2021/12/07 11:07:20;;;;;;;22.73;5.78;;;;;;;16.53;44.62;97058.34;4878141;29;20025;-83
2021/12/07 11:09:56;;;;;;;25.70;5.63;;;;;;;16.88;43.67;97044.69;4877417;29;20025;-82
2021/12/07 11:12:23;;;;;;;14.07;3.60;;;;;;;16.90;43.09;97025.69;4879921;29;20029;-80
2021/12/07 11:14:57;;;;;;;20.75;4.63;;;;;;;16.76;43.57;97018.66;4879830;29;20021;-79
2021/12/07 11:17:34;;;;;;;18.15;5.38;;;;;;;17.10;42.60;97006.13;4879483;29;20028;-81
2021/12/07 11:20:01;;;;;;;19.73;5.47;;;;;;;16.95;42.92;97002.31;4877376;29;20109;-81
2021/12/07 11:22:31;;;;;;;21.40;5.00;;;;;;;16.88;43.11;96975.75;4878096;29;20384;-81
2021/12/07 11:25:00;;;;;;;13.23;3.60;;;;;;;16.63;43.65;96960.81;4860203;29;20031;-79
2021/12/07 11:30:17;;;;;;;14.98;3.75;;;;;;;16.77;42.02;96909.16;4879407;29;20032;-84
2021/12/07 11:32:54;;;;;;;25.95;4.90;;;;;;;16.53;42.35;96912.31;4879589;29;20104;-79
2021/12/07 11:35:24;;;;;;;11.18;3.25;;;;;;;16.46;42.31;96893.25;4879601;29;20345;-86
2021/12/07 11:37:50;;;;;;;13.30;3.17;;;;;;;16.89;41.65;96889.84;4862867;29;20487;-86
2021/12/07 11:40:23;;;;;;;10.43;3.45;;;;;;;16.53;41.82;96873.72;4862969;29;20064;-84
2021/12/07 11:42:49;;;;;;;11.30;3.40;;;;;;;16.71;41.30;96850.34;4861091;29;20391;-81
2021/12/07 11:45:28;;;;;;;14.00;3.88;;;;;;;16.86;40.70;96810.03;4879101;29;20025;-76
2021/12/07 11:48:13;;;;;;;25.63;4.28;;;;;;;17.13;40.14;96840.50;4879554;29;20048;-78
2021/12/07 11:50:49;;;;;;;12.60;3.30;;;;;;;16.78;40.73;96822.53;4879145;29;20044;-77
2021/12/07 11:53:25;;;;;;;14.77;3.63;;;;;;;16.84;40.56;96815.19;4862739;29;20036;-79
2021/12/07 11:55:54;;;;;;;14.20;3.30;;;;;;;16.84;40.83;96817.94;4861926;29;20060;-78
2021/12/07 11:58:20;;;;;;;10.27;2.80;;;;;;;16.64;41.10;96794.22;4861531;29;20032;-80
2021/12/07 12:00:52;;;;;;;11.05;2.78;;;;;;;16.63;40.93;96795.44;4860848;29;20448;-77
2021/12/07 12:03:22;;;;;;;12.15;3.55;;;;;;;16.43;40.73;96769.41;4877987;29;20032;-79
2021/12/07 12:05:49;;;;;;;11.85;3.03;;;;;;;16.79;40.49;96771.69;4878427;29;20473;-78
2021/12/07 12:08:20;;;;;;;7.05;2.80;;;;;;;16.45;40.88;96756.72;4878297;29;20039;-78
2021/12/07 12:11:25;;;;;;;12.25;3.70;;;;;;;16.66;40.46;96735.88;4878734;29;20032;-84
2021/12/07 12:14:10;;;;;;;10.13;3.38;;;;;;;16.31;41.47;96730.44;4874688;29;20049;-84
2021/12/07 12:16:49;;;;;;;18.40;4.15;;;;;;;16.32;41.79;96717.44;4857792;29;20500;-82
2021/12/07 12:19:49;;;;;;;18.55;4.22;;;;;;;15.92;42.23;96706.25;4862475;29;20040;-82
2021/12/07 12:22:24;;;;;;;21.02;4.35;;;;;;;16.45;41.25;96707.13;4862577;29;20142;-82
2021/12/07 12:24:51;;;;;;;18.95;5.13;;;;;;;16.32;41.33;96701.69;4862412;29;20029;-81
2021/12/07 12:27:25;;;;;;;19.45;4.25;;;;;;;16.00;41.70;96688.28;4861813;29;20025;-82
2021/12/07 12:29:53;;;;;;;24.08;4.93;;;;;;;16.03;42.08;96701.19;4862188;29;20025;-82
2021/12/07 12:32:44;;;;;;;22.25;4.80;;;;;;;16.22;42.01;96680.81;4860869;29;20033;-81
2021/12/07 12:35:11;;;;;;;23.30;4.50;;;;;;;16.22;42.13;96682.78;4877051;29;20035;-83
2021/12/07 12:37:38;;;;;;;18.17;4.50;;;;;;;16.13;42.19;96649.69;4862257;29;20032;-82
2021/12/07 12:40:18;;;;;;;20.63;5.20;;;;;;;16.48;41.42;96651.13;4878402;29;20450;-82
2021/12/07 12:42:46;;;;;;;16.15;5.85;;;;;;;16.28;41.96;96639.69;4878897;29;20037;-81
2021/12/07 12:45:25;;;;;;;17.02;4.43;;;;;;;16.28;41.33;96634.94;4862085;29;20056;-82
2021/12/07 12:48:01;;;;;;;12.77;3.13;;;;;;;15.69;41.59;96631.16;4878903;29;20048;-80
2021/12/07 12:50:46;;;;;;;10.75;2.83;;;;;;;16.20;39.82;96619.13;4878877;29;20029;-83
2021/12/07 12:53:21;;;;;;;10.20;2.85;;;;;;;15.87;40.24;96604.97;4879062;29;20029;-80
2021/12/07 12:55:55;;;;;;;11.38;2.22;;;;;;;16.18;39.04;96611.34;4862229;29;20105;-81
2021/12/07 12:58:35;;;;;;;10.38;2.90;;;;;;;16.52;38.46;96607.66;4878785;29;20036;-80
2021/12/07 13:01:12;;;;;;;8.25;2.90;;;;;;;16.33;38.47;96584.03;4861738;29;20041;-80
2021/12/07 13:03:41;;;;;;;11.05;2.80;;;;;;;16.36;38.32;96589.38;4861857;29;20080;-80
2021/12/07 13:06:07;;;;;;;7.30;2.22;;;;;;;16.41;37.97;96577.03;4878219;29;20040;-83
2021/12/07 13:08:54;;;;;;;9.68;3.47;;;;;;;16.16;37.89;96568.91;4881670;29;20472;-83
2021/12/07 13:11:42;;;;;;;8.73;3.33;;;;;;;16.54;37.12;96558.38;4861294;29;20045;-83
2021/12/07 13:14:31;;;;;;;8.43;2.45;;;;;;;16.09;37.29;96543.19;4861043;29;20025;-81
2021/12/07 13:17:07;;;;;;;6.32;1.80;;;;;;;16.09;37.43;96518.41;4866454;29;20067;-87